createdAt,value
2018-01-14T15:57:37.045Z,13.65
2018-01-14T16:00:04.537Z,14.20
2018-01-14T16:05:00.197Z,14.03
2018-01-14T16:07:27.717Z,12.47
2018-01-14T16:09:55.196Z,14.63
2018-01-14T16:12:22.705Z,13.53
2018-01-14T16:14:50.945Z,13.97
2018-01-14T16:17:19.226Z,13.87
2018-01-14T16:19:46.781Z,13.97
2018-01-14T16:22:14.253Z,13.80
2018-01-14T16:24:41.749Z,12.90
2018-01-14T16:27:09.296Z,14.27
2018-01-14T16:29:36.878Z,13.00
2018-01-14T16:32:04.394Z,13.37
2018-01-14T16:34:31.929Z,13.30
2018-01-14T16:36:59.409Z,13.33
2018-01-14T16:39:26.913Z,13.87
2018-01-14T16:41:55.182Z,13.77
2018-01-14T16:44:22.666Z,12.93
2018-01-14T16:46:50.153Z,13.27
2018-01-14T16:49:18.430Z,15.23
2018-01-14T16:51:45.913Z,13.03
2018-01-14T16:54:14.160Z,12.53
2018-01-14T16:56:41.672Z,12.93
2018-01-14T16:59:09.998Z,13.47
2018-01-14T17:01:37.534Z,14.43
2018-01-14T17:04:08.009Z,13.97
2018-01-14T17:06:35.523Z,13.73
2018-01-14T17:09:03.805Z,15.90
2018-01-14T17:11:32.110Z,13.83
2018-01-14T17:14:00.349Z,17.43
2018-01-14T17:16:27.863Z,12.73
2018-01-14T17:18:56.146Z,14.10
2018-01-14T17:21:24.082Z,13.33
2018-01-14T17:23:51.577Z,12.70
2018-01-14T17:26:19.073Z,12.90
2018-01-14T17:28:47.320Z,15.37
2018-01-14T17:31:14.800Z,13.27
2018-01-14T17:33:42.298Z,13.57
2018-01-14T17:36:10.586Z,13.67
2018-01-14T17:38:38.886Z,13.27
2018-01-14T17:41:06.734Z,13.20
2018-01-14T17:43:37.600Z,12.73
2018-01-14T17:46:05.108Z,13.37
2018-01-14T17:48:32.606Z,12.93
2018-01-14T17:51:00.110Z,13.83
2018-01-14T17:53:28.360Z,12.97
2018-01-14T17:55:55.877Z,13.27
2018-01-14T17:58:24.115Z,14.20
2018-01-14T18:00:52.363Z,12.80
2018-01-14T18:03:19.872Z,12.70
2018-01-14T18:05:47.350Z,15.87
2018-01-14T18:08:14.830Z,13.80
2018-01-14T18:10:42.409Z,14.03
2018-01-14T18:13:09.925Z,12.60
2018-01-14T18:15:37.431Z,14.17
2018-01-14T18:18:04.939Z,14.37
2018-01-14T18:20:33.188Z,14.43
2018-01-14T18:23:00.660Z,13.87
2018-01-14T18:25:28.166Z,14.03
2018-01-14T18:27:56.449Z,14.57
2018-01-14T18:30:24.699Z,13.60
2018-01-14T18:32:52.969Z,14.97
2018-01-14T18:35:20.457Z,13.47
2018-01-14T18:37:47.933Z,14.70
2018-01-14T18:40:15.442Z,14.47
2018-01-14T18:42:43.695Z,13.70
2018-01-14T18:45:11.193Z,15.17
2018-01-14T18:47:39.546Z,14.27
2018-01-14T18:50:07.132Z,14.50
2018-01-14T18:52:34.613Z,16.50
2018-01-14T18:55:02.105Z,16.43
2018-01-14T18:57:29.689Z,15.60
2018-01-14T18:59:57.224Z,14.70
2018-01-14T19:02:24.722Z,15.27
2018-01-14T19:04:52.220Z,15.43
2018-01-14T19:07:20.926Z,17.20
2018-01-14T19:09:48.457Z,14.73
2018-01-14T19:12:15.928Z,16.03
2018-01-14T19:14:44.001Z,13.70
2018-01-14T19:17:12.548Z,15.50
2018-01-14T19:19:40.092Z,16.60
2018-01-14T19:22:07.584Z,14.97
2018-01-14T19:24:39.670Z,15.70
2018-01-14T19:27:07.181Z,16.07
2018-01-14T19:29:34.668Z,15.57
2018-01-14T19:32:05.556Z,14.80
2018-01-14T19:34:33.923Z,15.37
2018-01-14T19:37:01.401Z,14.43
2018-01-14T19:39:28.909Z,17.93
2018-01-14T19:41:56.395Z,16.17
2018-01-14T19:44:23.893Z,17.30
2018-01-14T19:46:51.561Z,16.90
2018-01-14T19:49:19.076Z,17.57
2018-01-14T19:51:46.582Z,21.07
2018-01-14T19:54:14.905Z,18.13
2018-01-14T19:56:42.464Z,15.53
2018-01-14T19:59:09.993Z,20.73
2018-01-14T20:01:37.522Z,19.10
2018-01-14T20:04:05.002Z,18.20
2018-01-14T20:06:32.491Z,18.00
2018-01-14T20:09:00.665Z,22.83
2018-01-14T20:11:28.144Z,15.27
2018-01-14T20:13:56.390Z,15.40
2018-01-14T20:16:23.928Z,16.47
2018-01-14T20:18:51.529Z,15.60
2018-01-14T20:21:19.037Z,15.37
2018-01-14T20:23:46.542Z,15.73
2018-01-14T20:26:14.793Z,16.70
2018-01-14T20:28:42.265Z,16.00
2018-01-14T20:31:09.766Z,16.97
2018-01-14T20:33:38.013Z,16.03
2018-01-14T20:36:05.501Z,16.50
2018-01-14T20:38:33.006Z,14.70
2018-01-14T20:41:01.251Z,14.67
2018-01-14T20:43:28.745Z,13.60
2018-01-14T20:45:56.296Z,14.27
2018-01-14T20:48:23.863Z,13.67
2018-01-14T20:50:51.419Z,15.07
2018-01-14T20:53:18.948Z,18.03
2018-01-14T20:55:47.180Z,15.60
2018-01-14T20:58:14.681Z,15.00
2018-01-14T21:00:42.221Z,14.87
2018-01-14T21:03:09.729Z,13.63
2018-01-14T21:05:37.215Z,13.63
2018-01-14T21:08:09.034Z,14.00
2018-01-14T21:10:36.508Z,13.50
2018-01-14T21:13:03.994Z,14.67
2018-01-14T21:15:31.541Z,11.27
2018-01-14T21:17:59.072Z,12.17
2018-01-14T21:20:26.554Z,11.80
2018-01-14T21:22:54.077Z,11.13
2018-01-14T21:25:21.620Z,11.83
2018-01-14T21:27:49.120Z,12.17
2018-01-14T21:30:16.633Z,12.53
2018-01-14T21:32:44.123Z,12.50
2018-01-14T21:35:11.598Z,12.07
2018-01-14T21:37:39.099Z,12.20
2018-01-14T21:40:06.573Z,10.73
2018-01-14T21:42:34.049Z,12.30
2018-01-14T21:45:02.330Z,11.90
2018-01-14T21:47:29.973Z,11.80
2018-01-14T21:49:57.449Z,12.07
2018-01-14T21:52:24.961Z,11.67
2018-01-14T21:54:53.318Z,11.33
2018-01-14T21:57:21.022Z,12.23
2018-01-14T21:59:49.298Z,12.37
2018-01-14T22:02:17.537Z,12.57
2018-01-14T22:04:46.941Z,11.17
2018-01-14T22:07:14.450Z,10.37
2018-01-14T22:09:41.957Z,10.20
2018-01-14T22:12:10.197Z,10.90
2018-01-14T22:14:37.710Z,11.33
2018-01-14T22:17:05.950Z,10.07
2018-01-14T22:19:33.425Z,10.00
2018-01-14T22:22:00.921Z,10.27
2018-01-14T22:24:28.415Z,10.33
2018-01-14T22:26:55.942Z,10.20
2018-01-14T22:29:23.460Z,10.77
2018-01-14T22:31:51.007Z,11.13
2018-01-14T22:34:19.257Z,10.80
2018-01-14T22:36:46.801Z,9.80
2018-01-14T22:39:14.290Z,9.07
2018-01-14T22:41:41.808Z,9.23
2018-01-14T22:44:10.107Z,9.67
2018-01-14T22:46:37.598Z,9.23
2018-01-14T22:49:05.077Z,9.20
2018-01-14T22:51:32.573Z,8.90
2018-01-14T22:54:00.853Z,9.87
2018-01-14T22:56:28.335Z,9.60
2018-01-14T22:58:55.842Z,9.87
2018-01-14T23:01:24.087Z,9.83
2018-01-14T23:03:51.582Z,9.57
2018-01-14T23:06:19.080Z,9.30
2018-01-14T23:08:46.558Z,9.03
2018-01-14T23:11:14.054Z,9.27
2018-01-14T23:13:41.655Z,10.43
2018-01-14T23:16:09.642Z,9.10
2018-01-14T23:18:37.896Z,9.40
2018-01-14T23:21:05.392Z,10.13
2018-01-14T23:23:32.869Z,9.97
2018-01-14T23:26:00.369Z,9.47
2018-01-14T23:28:27.869Z,9.47
2018-01-14T23:30:55.344Z,8.97
2018-01-14T23:33:22.821Z,9.77
2018-01-14T23:35:50.317Z,9.83
2018-01-14T23:38:18.566Z,9.03
2018-01-14T23:40:46.098Z,9.43
2018-01-14T23:43:14.467Z,9.97
2018-01-14T23:45:42.041Z,9.37
2018-01-14T23:48:09.624Z,9.83
2018-01-14T23:50:37.144Z,8.73
2018-01-14T23:53:04.620Z,9.10
2018-01-14T23:55:32.102Z,9.27
2018-01-14T23:57:59.693Z,9.47
